Time;durP1;ratioP1;P1;durP2;ratioP2;P2;SDS_P1;SDS_P2;PMS_P1;PMS_P2;Temp;Humidity;BMP_temperature;BMP_pressure;BME280_temperature;BME280_humidity;BME280_pressure;Samples;Min_cycle;Max_cycle;Signal;HPM_P1;HPM_P2
2024/01/18 00:00:46;;;;;;;15.88;8.05;;;1.30;99.90;;;;;;5072743;28;20025;-66
2024/01/18 00:03:12;;;;;;;17.55;8.00;;;1.30;99.90;;;;;;5072611;28;20029;-66
2024/01/18 00:05:37;;;;;;;21.92;8.73;;;1.30;99.90;;;;;;5071713;28;20024;-66
2024/01/18 00:08:03;;;;;;;20.52;8.00;;;1.30;99.90;;;;;;5072681;28;20093;-66
2024/01/18 00:10:29;;;;;;;16.65;7.47;;;1.30;99.90;;;;;;5072663;28;20111;-66
2024/01/18 00:12:55;;;;;;;18.77;9.48;;;1.30;99.90;;;;;;5072612;28;20025;-66
2024/01/18 00:15:21;;;;;;;21.20;8.75;;;1.30;99.90;;;;;;5072536;28;20029;-66
2024/01/18 00:17:47;;;;;;;15.57;7.85;;;1.30;99.90;;;;;;5072594;28;20092;-66
2024/01/18 00:20:14;;;;;;;19.60;8.30;;;1.20;99.90;;;;;;5072602;28;20033;-66
2024/01/18 00:22:39;;;;;;;18.55;8.98;;;1.20;99.90;;;;;;5072593;28;20055;-66
2024/01/18 00:25:07;;;;;;;20.58;9.07;;;1.20;99.90;;;;;;5072487;28;20025;-66
2024/01/18 00:27:32;;;;;;;16.55;8.65;;;1.20;99.90;;;;;;5072470;28;20014;-66
2024/01/18 00:29:58;;;;;;;21.35;10.27;;;1.20;99.90;;;;;;5072561;28;20021;-66
2024/01/18 00:32:24;;;;;;;22.30;9.90;;;1.20;99.90;;;;;;5072124;28;20036;-66
2024/01/18 00:34:50;;;;;;;19.77;9.20;;;1.20;99.90;;;;;;5072410;28;20071;-66
2024/01/18 00:37:16;;;;;;;19.27;8.77;;;1.10;99.90;;;;;;5072162;28;20036;-66
2024/01/18 00:39:42;;;;;;;15.50;9.13;;;1.10;99.90;;;;;;5072292;28;20029;-66
2024/01/18 00:42:08;;;;;;;14.32;7.90;;;1.10;99.90;;;;;;5071093;28;20055;-66
2024/01/18 00:44:33;;;;;;;18.55;8.82;;;1.00;99.90;;;;;;5072112;28;20044;-66
2024/01/18 00:46:59;;;;;;;25.10;9.98;;;1.00;99.90;;;;;;5072228;28;20037;-66
2024/01/18 00:49:25;;;;;;;22.98;9.38;;;1.00;99.90;;;;;;5072149;28;20037;-66
2024/01/18 00:51:50;;;;;;;20.17;9.23;;;1.00;99.90;;;;;;5072068;28;20025;-66
2024/01/18 00:54:16;;;;;;;19.52;9.45;;;1.00;99.90;;;;;;5072093;28;20033;-66
2024/01/18 00:56:41;;;;;;;17.58;9.52;;;1.00;99.90;;;;;;5071928;28;20060;-66
2024/01/18 00:59:08;;;;;;;20.73;9.52;;;1.10;99.90;;;;;;5071932;28;20025;-66
2024/01/18 01:01:33;;;;;;;18.40;9.07;;;1.10;99.90;;;;;;5072032;28;20541;-66
2024/01/18 01:03:59;;;;;;;22.17;9.77;;;1.10;99.90;;;;;;5071875;28;20089;-66
2024/01/18 01:06:25;;;;;;;22.85;10.27;;;1.10;99.90;;;;;;5072040;28;20029;-66
2024/01/18 01:08:50;;;;;;;21.70;9.23;;;1.10;99.90;;;;;;5075704;28;20037;-66
2024/01/18 01:11:17;;;;;;;17.27;9.15;;;1.10;99.90;;;;;;5076075;28;20065;-66
2024/01/18 01:13:44;;;;;;;19.83;9.60;;;1.10;99.90;;;;;;5075957;28;20055;-65
2024/01/18 01:16:10;;;;;;;25.92;9.75;;;1.20;99.90;;;;;;5076077;28;20017;-66
2024/01/18 01:18:36;;;;;;;24.80;10.18;;;1.10;99.90;;;;;;5075935;28;20064;-66
2024/01/18 01:21:02;;;;;;;24.58;9.93;;;1.10;99.90;;;;;;5075906;28;20041;-66
2024/01/18 01:23:28;;;;;;;20.35;9.27;;;1.10;99.90;;;;;;5075804;28;20021;-66
2024/01/18 01:25:53;;;;;;;23.30;11.48;;;1.10;99.90;;;;;;5075835;28;20036;-66
2024/01/18 01:28:19;;;;;;;26.58;10.93;;;1.10;99.90;;;;;;5075807;28;20037;-66
2024/01/18 01:30:44;;;;;;;19.63;10.02;;;1.10;99.90;;;;;;5075656;28;20053;-66
2024/01/18 01:33:10;;;;;;;24.77;9.90;;;1.00;99.90;;;;;;5075528;28;20051;-66
2024/01/18 01:35:36;;;;;;;22.45;10.35;;;1.00;99.90;;;;;;5075716;28;20029;-66
2024/01/18 01:38:01;;;;;;;25.38;10.80;;;1.00;99.90;;;;;;5075616;28;20044;-66
2024/01/18 01:40:27;;;;;;;21.95;10.15;;;1.00;99.90;;;;;;5075608;28;20269;-66
2024/01/18 01:42:52;;;;;;;25.80;10.57;;;1.10;99.90;;;;;;5075452;28;20029;-66
2024/01/18 01:45:18;;;;;;;21.35;10.13;;;1.10;99.90;;;;;;5075534;28;20039;-66
2024/01/18 01:47:43;;;;;;;23.20;10.35;;;1.10;99.90;;;;;;5075476;28;20059;-66
2024/01/18 01:50:10;;;;;;;22.25;9.65;;;1.10;99.90;;;;;;5075294;28;20033;-66
2024/01/18 01:52:38;;;;;;;22.02;9.73;;;1.10;99.90;;;;;;5075279;28;20112;-66
2024/01/18 01:55:06;;;;;;;23.50;10.32;;;1.10;99.90;;;;;;5075290;28;20029;-66
2024/01/18 01:57:32;;;;;;;22.00;9.85;;;1.00;99.90;;;;;;5074838;28;20045;-65
2024/01/18 01:59:58;;;;;;;22.40;9.70;;;1.00;99.90;;;;;;5075323;28;20040;-66
2024/01/18 02:02:23;;;;;;;22.55;11.02;;;1.00;99.90;;;;;;5075024;28;20041;-66
2024/01/18 02:04:51;;;;;;;18.92;9.65;;;0.90;99.90;;;;;;5075175;28;20021;-66
2024/01/18 02:07:18;;;;;;;19.42;9.13;;;0.80;99.90;;;;;;5075104;28;20051;-66
2024/01/18 02:09:43;;;;;;;20.38;9.82;;;0.80;99.90;;;;;;5075055;28;20056;-67
2024/01/18 02:12:10;;;;;;;24.33;10.43;;;0.80;99.90;;;;;;5074790;28;20039;-66
2024/01/18 02:14:37;;;;;;;19.92;10.38;;;0.80;99.90;;;;;;5074825;28;20021;-66
2024/01/18 02:17:04;;;;;;;28.52;11.20;;;0.80;99.90;;;;;;5074882;28;20076;-66
2024/01/18 02:19:30;;;;;;;28.80;10.15;;;0.80;99.90;;;;;;5073445;28;20021;-66
2024/01/18 02:21:57;;;;;;;21.33;10.25;;;0.90;99.90;;;;;;5074799;28;20440;-66
2024/01/18 02:24:41;;;;;;;25.52;12.15;;;0.90;99.90;;;;;;5074761;28;20017;-66
2024/01/18 02:27:06;;;;;;;23.42;10.35;;;1.00;99.90;;;;;;5074706;28;20025;-66
2024/01/18 02:29:32;;;;;;;24.98;10.40;;;1.00;99.90;;;;;;5074674;28;20040;-66
2024/01/18 02:31:58;;;;;;;21.23;10.45;;;1.00;99.90;;;;;;5073545;28;20037;-66
2024/01/18 02:34:23;;;;;;;22.95;10.80;;;1.00;99.90;;;;;;5073373;28;20099;-66
2024/01/18 02:36:49;;;;;;;21.05;10.30;;;1.10;99.90;;;;;;5074497;28;20029;-66
2024/01/18 02:39:15;;;;;;;23.35;9.95;;;1.10;99.90;;;;;;5074397;28;20033;-66
2024/01/18 02:41:41;;;;;;;24.15;10.80;;;1.10;99.90;;;;;;5074388;28;20021;-66
2024/01/18 02:44:07;;;;;;;18.90;10.00;;;1.10;99.90;;;;;;5074396;28;20055;-66
2024/01/18 02:46:33;;;;;;;27.67;10.55;;;1.10;99.90;;;;;;5074394;28;20080;-66
2024/01/18 02:49:00;;;;;;;20.98;10.07;;;1.10;99.90;;;;;;5074281;28;20050;-66
2024/01/18 02:51:25;;;;;;;20.67;10.73;;;1.10;99.90;;;;;;5074229;28;20036;-66
2024/01/18 02:53:51;;;;;;;20.02;9.82;;;1.10;99.90;;;;;;5074177;28;20009;-66
2024/01/18 02:56:17;;;;;;;20.85;10.38;;;1.10;99.90;;;;;;5074153;28;20483;-66
2024/01/18 02:58:42;;;;;;;19.40;10.73;;;1.10;99.90;;;;;;5074152;28;20051;-66
2024/01/18 03:01:09;;;;;;;22.38;11.15;;;1.20;99.90;;;;;;5074053;28;20067;-66
2024/01/18 03:03:37;;;;;;;20.52;9.77;;;1.20;99.90;;;;;;5073749;28;20399;-66
2024/01/18 03:06:03;;;;;;;20.00;10.05;;;1.20;99.90;;;;;;5073895;28;20051;-66
2024/01/18 03:08:29;;;;;;;23.95;10.98;;;1.20;99.90;;;;;;5073865;28;20036;-66
2024/01/18 03:10:55;;;;;;;22.33;10.70;;;1.20;99.90;;;;;;5073777;28;20044;-66
2024/01/18 03:13:20;;;;;;;20.13;10.48;;;1.20;99.90;;;;;;5073806;28;20017;-66
2024/01/18 03:15:46;;;;;;;20.38;10.13;;;1.20;99.90;;;;;;5073835;28;20025;-65
2024/01/18 03:18:12;;;;;;;19.30;10.20;;;1.20;99.90;;;;;;5073755;28;20031;-66
2024/01/18 03:20:37;;;;;;;22.88;10.60;;;1.20;99.90;;;;;;5073613;28;20041;-66
2024/01/18 03:23:04;;;;;;;23.05;10.75;;;1.20;99.90;;;;;;5073610;28;20029;-66
2024/01/18 03:25:29;;;;;;;19.63;10.50;;;1.20;99.90;;;;;;5073641;28;20044;-66
2024/01/18 03:27:55;;;;;;;23.95;9.88;;;1.20;99.90;;;;;;5073548;28;20033;-66
2024/01/18 03:30:21;;;;;;;17.52;9.43;;;1.20;99.90;;;;;;5073056;28;20032;-66
2024/01/18 03:32:47;;;;;;;18.15;8.85;;;1.20;99.90;;;;;;5073295;28;20074;-66
2024/01/18 03:35:13;;;;;;;20.55;9.70;;;1.10;99.90;;;;;;5073521;28;20027;-66
2024/01/18 03:37:38;;;;;;;20.38;9.82;;;1.10;99.90;;;;;;5073259;28;20033;-66
2024/01/18 03:40:08;;;;;;;17.95;9.18;;;1.10;99.90;;;;;;5073310;28;20021;-67
2024/01/18 03:42:34;;;;;;;23.42;10.07;;;1.10;99.90;;;;;;5073240;28;20036;-66
2024/01/18 03:44:59;;;;;;;18.08;9.32;;;1.10;99.90;;;;;;5073147;28;20029;-66
2024/01/18 03:47:25;;;;;;;21.30;9.55;;;1.00;99.90;;;;;;5073115;28;20123;-66
2024/01/18 03:49:51;;;;;;;23.42;9.82;;;1.10;99.90;;;;;;5073016;28;20021;-66
2024/01/18 03:52:16;;;;;;;23.50;9.90;;;1.00;99.90;;;;;;5072835;28;20021;-66
2024/01/18 03:54:42;;;;;;;20.67;10.13;;;1.00;99.90;;;;;;5072986;28;20037;-66
2024/01/18 03:57:08;;;;;;;22.67;10.70;;;1.00;99.90;;;;;;5072541;28;20048;-66
2024/01/18 03:59:33;;;;;;;21.08;10.13;;;1.00;99.90;;;;;;5071856;28;20495;-66
2024/01/18 04:01:59;;;;;;;19.70;10.20;;;1.00;99.90;;;;;;5072909;28;20040;-66
2024/01/18 04:04:24;;;;;;;22.58;9.93;;;0.90;99.90;;;;;;5072575;28;20033;-66
2024/01/18 04:06:50;;;;;;;19.10;9.45;;;0.80;99.90;;;;;;5072696;28;20033;-66
2024/01/18 04:09:15;;;;;;;22.63;9.45;;;0.80;99.90;;;;;;5072727;28;20047;-66
2024/01/18 04:11:42;;;;;;;19.90;10.35;;;0.70;99.90;;;;;;5072643;28;20041;-65
2024/01/18 04:14:08;;;;;;;22.17;9.43;;;0.70;99.90;;;;;;5072637;28;20047;-66
2024/01/18 04:16:34;;;;;;;17.10;9.35;;;0.70;99.90;;;;;;5072676;28;20045;-66
2024/01/18 04:19:00;;;;;;;16.77;9.73;;;0.70;99.90;;;;;;5072628;28;20045;-66
2024/01/18 04:21:26;;;;;;;22.98;10.52;;;0.60;99.90;;;;;;5072532;28;20029;-66
2024/01/18 04:23:52;;;;;;;17.92;8.52;;;0.50;99.90;;;;;;5072503;28;20053;-66
2024/01/18 04:26:17;;;;;;;16.42;8.88;;;0.50;99.90;;;;;;5072503;28;20036;-67
2024/01/18 04:28:43;;;;;;;16.52;10.05;;;0.50;99.90;;;;;;5072481;28;20040;-66
2024/01/18 04:31:08;;;;;;;18.95;9.55;;;0.50;99.90;;;;;;5072369;28;20036;-66
2024/01/18 04:33:34;;;;;;;18.38;9.23;;;0.40;99.90;;;;;;5072065;28;20029;-66
2024/01/18 04:36:00;;;;;;;17.88;9.43;;;0.30;99.90;;;;;;5072448;28;20029;-66
2024/01/18 04:38:25;;;;;;;20.23;9.38;;;0.30;99.90;;;;;;5072248;28;20029;-66
2024/01/18 04:40:51;;;;;;;18.92;9.65;;;0.30;99.90;;;;;;5072366;28;20029;-66
2024/01/18 04:43:17;;;;;;;17.25;9.65;;;0.30;99.90;;;;;;5071519;28;20486;-66
2024/01/18 04:45:43;;;;;;;17.02;9.93;;;0.30;99.90;;;;;;5072356;28;20033;-66
2024/01/18 04:48:09;;;;;;;19.35;8.65;;;0.30;99.90;;;;;;5072179;28;20044;-66
2024/01/18 04:50:34;;;;;;;30.70;9.15;;;0.20;99.90;;;;;;5072034;28;20025;-66
2024/01/18 04:53:00;;;;;;;20.85;10.05;;;0.20;99.90;;;;;;5072160;28;20561;-66
2024/01/18 04:55:26;;;;;;;20.75;9.50;;;0.20;99.90;;;;;;5072149;28;20021;-65
2024/01/18 04:57:52;;;;;;;20.55;9.63;;;0.20;99.90;;;;;;5071936;28;20053;-66
2024/01/18 05:00:18;;;;;;;20.98;8.93;;;0.20;99.90;;;;;;5072042;28;20029;-66
2024/01/18 05:02:44;;;;;;;23.95;9.85;;;0.20;99.90;;;;;;5071938;28;20033;-66
2024/01/18 05:05:10;;;;;;;18.50;10.48;;;0.10;99.90;;;;;;5071952;28;20048;-66
2024/01/18 05:07:37;;;;;;;16.13;8.60;;;0.20;99.90;;;;;;5071890;28;20033;-66
2024/01/18 05:10:04;;;;;;;23.30;10.25;;;0.10;99.90;;;;;;5072030;28;20487;-66
2024/01/18 05:12:30;;;;;;;21.75;10.77;;;0.00;99.90;;;;;;5071937;28;20040;-66
2024/01/18 05:14:56;;;;;;;19.27;9.50;;;0.00;99.90;;;;;;5071960;28;20033;-66
2024/01/18 05:17:21;;;;;;;22.13;10.35;;;-0.10;99.90;;;;;;5071936;28;20100;-65
2024/01/18 05:19:47;;;;;;;19.67;9.95;;;-0.30;99.90;;;;;;5071867;28;20029;-66
2024/01/18 05:22:13;;;;;;;16.55;8.77;;;-0.30;99.90;;;;;;5071603;28;20367;-66
2024/01/18 05:24:39;;;;;;;23.27;10.15;;;-0.30;99.90;;;;;;5071941;28;20063;-66
2024/01/18 05:27:06;;;;;;;20.75;9.13;;;-0.40;99.90;;;;;;5071800;28;20037;-66
2024/01/18 05:29:32;;;;;;;18.63;9.15;;;-0.40;99.90;;;;;;5071905;28;20025;-66
2024/01/18 05:31:57;;;;;;;23.90;9.75;;;-0.50;99.90;;;;;;5071635;28;20048;-66
2024/01/18 05:34:23;;;;;;;20.65;9.02;;;-0.40;99.90;;;;;;5071575;28;20036;-66
2024/01/18 05:36:48;;;;;;;24.15;9.32;;;-0.50;99.90;;;;;;5071609;28;20029;-66
2024/01/18 05:39:14;;;;;;;16.38;8.35;;;-0.50;99.90;;;;;;5071678;28;20115;-66
2024/01/18 05:41:40;;;;;;;17.50;8.98;;;-0.50;99.90;;;;;;5071728;28;20028;-66
2024/01/18 05:44:05;;;;;;;17.58;8.88;;;-0.50;99.90;;;;;;5071714;28;20025;-66
2024/01/18 05:46:31;;;;;;;18.17;7.82;;;-0.50;99.90;;;;;;5071650;28;20454;-66
2024/01/18 05:48:56;;;;;;;18.90;8.98;;;-0.60;99.90;;;;;;5070599;28;20037;-66
2024/01/18 05:51:22;;;;;;;22.17;8.65;;;-0.60;99.90;;;;;;5071496;28;20060;-65
2024/01/18 05:53:48;;;;;;;20.50;9.00;;;-0.70;99.90;;;;;;5073174;28;20036;-66
2024/01/18 05:56:14;;;;;;;17.88;8.90;;;-0.70;99.90;;;;;;5075263;28;20045;-66
2024/01/18 05:58:40;;;;;;;21.33;9.10;;;-0.70;99.90;;;;;;5075093;28;20045;-66
2024/01/18 06:01:06;;;;;;;15.25;8.07;;;-0.70;99.90;;;;;;5075174;28;20041;-66
2024/01/18 06:03:31;;;;;;;17.08;9.27;;;-0.70;99.90;;;;;;5074988;28;20032;-66
2024/01/18 06:06:00;;;;;;;16.80;8.05;;;-0.70;99.90;;;;;;5075044;28;20033;-65
2024/01/18 06:08:26;;;;;;;16.05;8.00;;;-0.80;99.90;;;;;;5074898;28;20056;-66
2024/01/18 06:10:53;;;;;;;17.88;8.43;;;-0.90;99.90;;;;;;5074962;28;20029;-66
2024/01/18 06:13:20;;;;;;;24.05;9.45;;;-0.90;99.90;;;;;;5074894;28;20376;-66
2024/01/18 06:15:45;;;;;;;19.35;10.10;;;-0.90;99.90;;;;;;5074799;28;20021;-65
2024/01/18 06:18:11;;;;;;;19.92;9.60;;;-1.00;99.90;;;;;;5074840;28;20047;-66
2024/01/18 06:20:36;;;;;;;23.50;9.00;;;-1.00;99.90;;;;;;5074771;28;20040;-66
2024/01/18 06:23:02;;;;;;;16.73;9.15;;;-1.10;99.90;;;;;;5074762;28;20039;-66
2024/01/18 06:25:28;;;;;;;20.48;8.70;;;-1.10;99.90;;;;;;5074684;28;20120;-65
2024/01/18 06:27:53;;;;;;;15.93;7.82;;;-1.10;99.90;;;;;;5074644;28;20033;-66
2024/01/18 06:30:19;;;;;;;13.48;6.75;;;-1.10;99.90;;;;;;5074533;28;20194;-65
2024/01/18 06:32:45;;;;;;;22.63;9.35;;;-1.10;99.90;;;;;;5074447;28;20076;-65
2024/01/18 06:35:11;;;;;;;16.83;7.85;;;-1.20;99.90;;;;;;5074581;28;20032;-65
2024/01/18 06:37:38;;;;;;;23.63;9.65;;;-1.20;99.90;;;;;;5074474;28;20017;-65
2024/01/18 06:40:04;;;;;;;15.65;8.82;;;-1.20;99.90;;;;;;5074537;28;20092;-66
2024/01/18 06:42:31;;;;;;;19.73;8.95;;;-1.30;99.90;;;;;;5074538;28;20079;-66
2024/01/18 06:44:57;;;;;;;24.30;10.05;;;-1.30;99.90;;;;;;5074345;28;20041;-66
2024/01/18 06:47:22;;;;;;;20.00;8.93;;;-1.30;99.90;;;;;;5074303;28;20040;-65
2024/01/18 06:49:48;;;;;;;17.63;8.35;;;-1.40;99.90;;;;;;5074340;28;20029;-66
2024/01/18 06:52:14;;;;;;;21.50;9.82;;;-1.40;99.90;;;;;;5074197;28;20051;-65
2024/01/18 06:54:43;;;;;;;21.42;9.27;;;-1.40;99.90;;;;;;5074372;28;20029;-65
2024/01/18 06:57:09;;;;;;;18.60;8.63;;;-1.40;99.90;;;;;;5074012;28;20041;-65
2024/01/18 06:59:35;;;;;;;19.65;8.32;;;-1.50;99.90;;;;;;5074005;28;20094;-66
2024/01/18 07:02:01;;;;;;;16.27;8.73;;;-1.50;99.90;;;;;;5074091;28;20044;-66
2024/01/18 07:04:26;;;;;;;15.70;8.23;;;-1.50;99.90;;;;;;5073386;28;20032;-66
2024/01/18 07:06:52;;;;;;;18.05;7.32;;;-1.50;99.90;;;;;;5073703;28;20033;-67
2024/01/18 07:09:17;;;;;;;15.13;7.25;;;-1.60;99.90;;;;;;5073945;28;20021;-66
2024/01/18 07:11:43;;;;;;;19.90;7.70;;;-1.50;99.90;;;;;;5073957;28;20537;-65
2024/01/18 07:14:09;;;;;;;13.57;7.95;;;-1.50;99.90;;;;;;5073770;28;20025;-66
2024/01/18 07:16:35;;;;;;;20.13;7.85;;;-1.50;99.90;;;;;;5073779;28;20049;-65
2024/01/18 07:19:00;;;;;;;17.35;8.10;;;-1.50;99.90;;;;;;5073615;28;20100;-65
2024/01/18 07:21:26;;;;;;;19.15;7.57;;;-1.60;99.90;;;;;;5088364;28;20104;-65
2024/01/18 07:23:51;;;;;;;17.05;8.15;;;-1.60;99.90;;;;;;5093723;28;20037;-66
2024/01/18 07:26:18;;;;;;;16.88;8.82;;;-1.60;99.90;;;;;;5093665;28;20032;-66
2024/01/18 07:28:44;;;;;;;20.40;8.00;;;-1.60;99.90;;;;;;5093571;28;20036;-66
2024/01/18 07:31:10;;;;;;;18.85;8.45;;;-1.60;99.90;;;;;;5093629;28;20051;-66
2024/01/18 07:33:37;;;;;;;15.45;7.60;;;-1.60;99.90;;;;;;5093366;28;20059;-65
2024/01/18 07:36:03;;;;;;;21.55;9.15;;;-1.70;99.90;;;;;;5093491;28;20020;-66
2024/01/18 07:38:28;;;;;;;21.88;10.63;;;-1.70;99.90;;;;;;5093369;28;20071;-65
2024/01/18 07:40:54;;;;;;;26.02;10.00;;;-1.80;99.90;;;;;;5091719;28;20060;-65
2024/01/18 07:43:19;;;;;;;21.58;10.27;;;-1.80;99.90;;;;;;5091101;28;20092;-65
2024/01/18 07:45:45;;;;;;;16.45;7.88;;;-1.90;99.90;;;;;;5092069;28;20058;-65
2024/01/18 07:48:11;;;;;;;23.98;9.27;;;-1.90;99.90;;;;;;5093253;28;20027;-65
2024/01/18 07:50:37;;;;;;;24.17;10.20;;;-2.00;99.90;;;;;;5091940;28;20483;-66
2024/01/18 07:53:03;;;;;;;24.48;9.88;;;-2.00;99.90;;;;;;5093050;28;20023;-66
2024/01/18 07:55:29;;;;;;;26.48;10.13;;;-2.00;99.90;;;;;;5093131;28;20027;-65
2024/01/18 07:57:55;;;;;;;25.88;10.68;;;-2.00;99.90;;;;;;5092847;28;20040;-65
2024/01/18 08:00:20;;;;;;;21.15;8.32;;;-2.00;99.90;;;;;;5093062;28;20028;-65
2024/01/18 08:02:46;;;;;;;22.38;9.18;;;-2.00;99.90;;;;;;5092769;28;20055;-66
2024/01/18 08:05:12;;;;;;;15.98;7.03;;;-2.00;99.90;;;;;;5092930;28;20052;-65
2024/01/18 08:07:38;;;;;;;14.25;6.32;;;-2.00;99.90;;;;;;5092741;28;20028;-66
2024/01/18 08:10:06;;;;;;;19.25;8.65;;;-2.00;99.90;;;;;;5091738;28;20051;-65
2024/01/18 08:12:31;;;;;;;18.17;7.72;;;-1.90;99.90;;;;;;5092582;28;20036;-65
2024/01/18 08:14:57;;;;;;;18.80;8.00;;;-1.90;99.90;;;;;;5092679;28;20024;-66
2024/01/18 08:17:22;;;;;;;17.83;8.20;;;-1.90;99.90;;;;;;5092707;28;20044;-65
2024/01/18 08:19:48;;;;;;;19.27;8.13;;;-1.90;99.90;;;;;;5092623;28;20095;-66
2024/01/18 08:22:15;;;;;;;13.82;7.15;;;-1.90;99.90;;;;;;5092607;28;20032;-65
2024/01/18 08:24:41;;;;;;;11.88;6.63;;;-1.90;99.90;;;;;;5092633;28;20028;-66
2024/01/18 08:27:07;;;;;;;16.20;9.98;;;-1.90;99.90;;;;;;5092455;28;20040;-65
2024/01/18 08:29:33;;;;;;;23.35;9.05;;;-1.90;99.90;;;;;;5092650;28;20028;-65
2024/01/18 08:32:01;;;;;;;20.58;9.57;;;-1.90;99.90;;;;;;5092516;28;20031;-65
2024/01/18 08:34:27;;;;;;;14.30;7.80;;;-1.90;99.90;;;;;;5092277;28;20028;-65
2024/01/18 08:36:52;;;;;;;23.33;8.52;;;-1.90;99.90;;;;;;5091301;28;20024;-65
2024/01/18 08:39:19;;;;;;;16.55;8.15;;;-1.80;99.90;;;;;;5092107;28;20374;-66
2024/01/18 08:41:44;;;;;;;19.20;8.10;;;-1.80;99.90;;;;;;5092001;28;20043;-65
2024/01/18 08:44:10;;;;;;;18.27;8.52;;;-1.80;99.90;;;;;;5092061;28;20036;-65
2024/01/18 08:46:39;;;;;;;15.40;8.20;;;-1.70;99.90;;;;;;5091023;28;20036;-65
2024/01/18 08:49:04;;;;;;;15.20;7.22;;;-1.60;99.90;;;;;;5091946;28;20033;-65
2024/01/18 08:51:30;;;;;;;18.38;8.30;;;-1.60;99.90;;;;;;5091857;28;20040;-65
2024/01/18 08:53:56;;;;;;;16.73;7.45;;;-1.50;99.90;;;;;;5091993;28;20020;-65
2024/01/18 08:56:21;;;;;;;17.90;7.38;;;-1.40;99.90;;;;;;5091885;28;20074;-65
2024/01/18 08:58:47;;;;;;;19.67;7.53;;;-1.30;99.90;;;;;;5091811;28;20040;-65
2024/01/18 09:01:13;;;;;;;15.77;7.43;;;-1.20;99.90;;;;;;5091510;28;20078;-65
2024/01/18 09:03:39;;;;;;;15.25;7.95;;;-1.10;99.90;;;;;;5091739;28;20020;-66
2024/01/18 09:06:05;;;;;;;13.30;6.50;;;-1.00;99.90;;;;;;5091657;28;20034;-65
2024/01/18 09:08:31;;;;;;;16.38;7.45;;;-0.90;99.90;;;;;;5091768;28;20037;-65
2024/01/18 09:10:56;;;;;;;12.93;6.93;;;-0.90;99.90;;;;;;5091466;28;20033;-65
2024/01/18 09:13:22;;;;;;;16.17;7.05;;;-0.80;99.90;;;;;;5091623;28;20076;-66
2024/01/18 09:15:50;;;;;;;17.58;7.15;;;-0.70;99.90;;;;;;5091771;28;20021;-65
2024/01/18 09:18:15;;;;;;;14.43;6.35;;;-0.60;99.90;;;;;;5091760;28;20070;-66
2024/01/18 09:20:45;;;;;;;18.17;7.20;;;-0.60;99.90;;;;;;5091683;28;20084;-65
2024/01/18 09:23:11;;;;;;;11.95;6.65;;;-0.50;99.90;;;;;;5091511;28;20029;-65
2024/01/18 09:25:37;;;;;;;13.18;6.75;;;-0.40;99.90;;;;;;5091664;28;20032;-66
2024/01/18 09:28:03;;;;;;;14.57;7.40;;;-0.30;99.90;;;;;;5092216;28;20036;-65
2024/01/18 09:30:29;;;;;;;11.75;6.70;;;-0.20;99.90;;;;;;5094489;28;20040;-65
2024/01/18 09:32:54;;;;;;;15.10;7.38;;;-0.10;99.90;;;;;;5095391;28;20028;-65
2024/01/18 09:35:20;;;;;;;11.40;6.35;;;0.00;99.90;;;;;;5095072;28;20025;-66
2024/01/18 09:37:47;;;;;;;13.52;6.53;;;0.10;99.90;;;;;;5095408;28;20017;-66
2024/01/18 09:40:12;;;;;;;14.75;6.63;;;0.20;99.90;;;;;;5095435;28;20412;-65
2024/01/18 09:42:45;;;;;;;14.73;6.70;;;0.30;99.90;;;;;;5095361;28;20033;-66
2024/01/18 09:45:14;;;;;;;13.52;6.68;;;0.40;99.90;;;;;;5095108;28;20028;-65
2024/01/18 09:47:43;;;;;;;12.75;6.65;;;0.50;99.90;;;;;;5095202;28;20103;-66
2024/01/18 09:50:10;;;;;;;10.95;6.15;;;0.60;99.90;;;;;;5095115;28;20084;-65
2024/01/18 09:52:36;;;;;;;12.20;6.18;;;0.70;99.90;;;;;;5095109;28;20055;-66
2024/01/18 09:55:01;;;;;;;16.52;7.65;;;0.70;99.90;;;;;;5095086;28;20455;-65
2024/01/18 09:57:32;;;;;;;20.55;7.25;;;0.80;99.90;;;;;;5094681;28;20041;-65
2024/01/18 10:00:00;;;;;;;12.95;6.40;;;0.90;99.90;;;;;;5095029;28;20024;-65
2024/01/18 10:02:26;;;;;;;11.40;5.68;;;0.90;99.90;;;;;;5094870;28;20054;-65
2024/01/18 10:04:54;;;;;;;11.40;6.25;;;1.00;99.90;;;;;;5094690;28;20020;-65
2024/01/18 10:07:20;;;;;;;14.57;7.22;;;1.10;99.90;;;;;;5094726;28;20037;-66
2024/01/18 10:09:47;;;;;;;12.00;6.45;;;1.20;99.90;;;;;;5094940;28;20017;-65
2024/01/18 10:12:12;;;;;;;10.50;5.63;;;1.30;99.90;;;;;;5094704;28;20029;-66
2024/01/18 10:14:42;;;;;;;15.15;6.82;;;1.40;99.90;;;;;;5094772;28;20051;-65
2024/01/18 10:17:09;;;;;;;16.90;6.22;;;1.50;99.90;;;;;;5094574;28;20025;-65
2024/01/18 10:19:34;;;;;;;10.98;5.90;;;1.50;99.90;;;;;;5094641;28;20179;-66
2024/01/18 10:22:00;;;;;;;12.13;5.85;;;1.60;99.90;;;;;;5094652;28;20021;-65
2024/01/18 10:24:26;;;;;;;12.07;5.50;;;1.70;99.90;;;;;;5094691;28;20084;-66
2024/01/18 10:27:02;;;;;;;15.90;5.80;;;1.80;99.90;;;;;;5094740;28;20406;-65
2024/01/18 10:29:35;;;;;;;10.48;4.40;;;1.90;99.90;;;;;;5094334;28;20095;-66
2024/01/18 10:32:01;;;;;;;9.77;5.65;;;1.90;99.90;;;;;;5094444;28;20028;-65
2024/01/18 10:34:27;;;;;;;10.55;5.40;;;2.00;99.90;;;;;;5094200;28;20025;-66
2024/01/18 10:36:52;;;;;;;10.23;4.93;;;2.10;99.90;;;;;;5094076;28;20047;-65
2024/01/18 10:39:18;;;;;;;9.82;4.88;;;2.20;99.90;;;;;;5093367;28;20032;-65
2024/01/18 10:41:45;;;;;;;11.05;4.97;;;2.30;99.90;;;;;;5093719;28;20028;-66
2024/01/18 10:44:14;;;;;;;10.05;4.75;;;2.40;99.90;;;;;;5094288;28;20025;-66
2024/01/18 10:46:41;;;;;;;7.78;4.18;;;2.40;99.90;;;;;;5094084;28;20043;-66
2024/01/18 10:49:07;;;;;;;8.70;4.40;;;2.50;99.90;;;;;;5093948;28;20032;-66
2024/01/18 10:51:33;;;;;;;12.40;4.88;;;2.60;99.90;;;;;;5094013;28;20029;-66
2024/01/18 10:53:59;;;;;;;10.70;4.63;;;2.70;99.90;;;;;;5094099;28;20084;-66
2024/01/18 10:56:27;;;;;;;10.02;4.28;;;2.80;99.90;;;;;;5094024;28;20025;-66
2024/01/18 10:58:53;;;;;;;11.00;4.65;;;2.90;99.90;;;;;;5093855;28;20036;-66
2024/01/18 11:01:21;;;;;;;6.35;3.78;;;2.90;99.90;;;;;;5093508;28;20080;-66
2024/01/18 11:03:47;;;;;;;7.93;4.00;;;3.00;99.90;;;;;;5093594;28;20023;-65
2024/01/18 11:06:13;;;;;;;8.15;3.90;;;3.10;99.90;;;;;;5093675;28;20033;-65
2024/01/18 11:08:41;;;;;;;8.98;3.70;;;3.10;99.90;;;;;;5093771;28;20044;-66
2024/01/18 11:11:07;;;;;;;8.80;3.65;;;3.20;99.90;;;;;;5093475;28;20386;-66
2024/01/18 11:13:33;;;;;;;5.45;3.20;;;3.30;99.90;;;;;;5093523;28;20095;-65
2024/01/18 11:15:59;;;;;;;7.25;3.15;;;3.40;99.90;;;;;;5093409;28;20021;-65
2024/01/18 11:18:25;;;;;;;5.55;3.33;;;3.40;99.90;;;;;;5093527;28;20032;-65
2024/01/18 11:20:59;;;;;;;5.63;2.60;;;3.50;99.90;;;;;;5093493;28;20027;-66
2024/01/18 11:23:43;;;;;;;4.35;2.83;;;3.50;99.90;;;;;;5093239;28;20025;-65
2024/01/18 11:26:19;;;;;;;6.45;3.00;;;3.60;99.90;;;;;;5093553;28;20047;-65
2024/01/18 11:28:45;;;;;;;7.22;3.17;;;3.60;99.90;;;;;;5093343;28;20505;-66
2024/01/18 11:31:11;;;;;;;5.22;2.40;;;3.60;99.90;;;;;;5092936;28;20037;-65
2024/01/18 11:33:37;;;;;;;4.07;2.05;;;3.70;99.90;;;;;;5093039;28;20039;-65
2024/01/18 11:36:03;;;;;;;4.35;2.60;;;3.80;99.90;;;;;;5093144;28;20020;-66
2024/01/18 11:38:29;;;;;;;3.35;2.38;;;3.80;99.90;;;;;;5092920;28;20024;-65
2024/01/18 11:41:20;;;;;;;3.90;2.45;;;3.90;99.90;;;;;;5092920;28;20032;-66
2024/01/18 11:43:57;;;;;;;4.55;2.60;;;3.90;99.90;;;;;;5093133;28;20025;-66
2024/01/18 11:46:52;;;;;;;4.20;2.55;;;3.90;99.90;;;;;;5092895;28;20051;-65
2024/01/18 11:49:17;;;;;;;6.20;1.88;;;4.00;99.90;;;;;;5091858;28;20048;-65
2024/01/18 11:51:45;;;;;;;4.68;2.08;;;4.00;99.90;;;;;;5092514;28;20044;-66
2024/01/18 11:54:14;;;;;;;4.03;2.35;;;4.00;99.90;;;;;;5092983;28;20028;-66
2024/01/18 11:56:41;;;;;;;2.80;1.83;;;4.10;99.90;;;;;;5092793;28;20474;-66
2024/01/18 11:59:08;;;;;;;4.00;2.35;;;4.10;99.90;;;;;;5092254;28;20041;-66
2024/01/18 12:01:34;;;;;;;3.95;2.05;;;4.20;99.90;;;;;;5092566;28;20054;-66
2024/01/18 12:04:00;;;;;;;4.40;1.80;;;4.20;99.90;;;;;;5092487;28;20029;-65
2024/01/18 12:06:28;;;;;;;6.20;1.88;;;4.30;99.90;;;;;;5092305;28;20033;-65
2024/01/18 12:08:54;;;;;;;3.53;1.90;;;4.40;99.90;;;;;;5092468;28;20088;-66
2024/01/18 12:11:20;;;;;;;3.75;2.10;;;4.40;99.90;;;;;;5092124;28;20032;-66
2024/01/18 12:13:46;;;;;;;3.42;1.70;;;4.50;99.90;;;;;;5092467;28;20029;-66
2024/01/18 12:16:13;;;;;;;3.58;1.77;;;4.50;99.90;;;;;;5092255;28;20076;-66
2024/01/18 12:18:45;;;;;;;3.72;1.73;;;4.60;99.90;;;;;;5092321;28;20081;-66
2024/01/18 12:21:11;;;;;;;2.95;1.65;;;4.60;99.90;;;;;;5092072;28;20048;-65
2024/01/18 12:23:37;;;;;;;4.40;1.73;;;4.60;99.90;;;;;;5092348;28;20044;-65
2024/01/18 12:26:04;;;;;;;1.40;1.08;;;4.70;99.90;;;;;;5092365;28;20024;-65
2024/01/18 12:28:30;;;;;;;4.07;1.50;;;4.70;99.90;;;;;;5092241;28;20021;-65
2024/01/18 12:31:01;;;;;;;3.40;1.27;;;4.70;99.90;;;;;;5091977;28;20096;-65
2024/01/18 12:33:29;;;;;;;2.55;1.50;;;4.70;99.90;;;;;;5091792;28;20043;-66
2024/01/18 12:35:55;;;;;;;2.55;1.42;;;4.70;99.90;;;;;;5092106;28;20107;-66
2024/01/18 12:38:21;;;;;;;2.60;1.20;;;4.60;99.90;;;;;;5090913;28;20028;-66